sensor_id;sensor_type;location;lat;lon;timestamp;P1;durP1;ratioP1;P2;durP2;ratioP2
48945;SDS011;34999;50.940;3.998;2024-01-15T00:01:14;5.17;;;4.67;;
48945;SDS011;34999;50.940;3.998;2024-01-15T00:03:42;5.40;;;4.67;;
48945;SDS011;34999;50.940;3.998;2024-01-15T00:06:13;5.10;;;4.60;;
48945;SDS011;34999;50.940;3.998;2024-01-15T00:08:42;5.70;;;4.63;;
48945;SDS011;34999;50.940;3.998;2024-01-15T00:11:10;5.20;;;4.30;;
48945;SDS011;34999;50.940;3.998;2024-01-15T00:13:39;4.40;;;4.00;;
48945;SDS011;34999;50.940;3.998;2024-01-15T00:16:09;5.03;;;4.23;;
48945;SDS011;34999;50.940;3.998;2024-01-15T00:18:38;4.93;;;4.20;;
48945;SDS011;34999;50.940;3.998;2024-01-15T00:21:06;4.00;;;3.77;;
48945;SDS011;34999;50.940;3.998;2024-01-15T00:23:35;5.40;;;4.13;;
48945;SDS011;34999;50.940;3.998;2024-01-15T00:26:03;5.90;;;4.40;;
48945;SDS011;34999;50.940;3.998;2024-01-15T00:28:35;5.37;;;4.07;;
48945;SDS011;34999;50.940;3.998;2024-01-15T00:31:04;4.33;;;4.00;;
48945;SDS011;34999;50.940;3.998;2024-01-15T00:33:34;5.97;;;4.13;;
48945;SDS011;34999;50.940;3.998;2024-01-15T00:36:03;4.83;;;4.20;;
48945;SDS011;34999;50.940;3.998;2024-01-15T00:38:32;5.00;;;4.07;;
48945;SDS011;34999;50.940;3.998;2024-01-15T00:41:00;5.10;;;4.20;;
48945;SDS011;34999;50.940;3.998;2024-01-15T00:43:29;4.13;;;3.80;;
48945;SDS011;34999;50.940;3.998;2024-01-15T00:45:57;3.77;;;3.47;;
48945;SDS011;34999;50.940;3.998;2024-01-15T00:48:25;5.37;;;3.90;;
48945;SDS011;34999;50.940;3.998;2024-01-15T00:50:55;5.37;;;3.83;;
48945;SDS011;34999;50.940;3.998;2024-01-15T00:53:23;6.63;;;4.17;;
48945;SDS011;34999;50.940;3.998;2024-01-15T00:55:52;4.10;;;3.80;;
48945;SDS011;34999;50.940;3.998;2024-01-15T00:58:21;3.93;;;3.67;;
48945;SDS011;34999;50.940;3.998;2024-01-15T01:00:49;4.73;;;3.40;;
48945;SDS011;34999;50.940;3.998;2024-01-15T01:03:17;6.80;;;3.97;;
48945;SDS011;34999;50.940;3.998;2024-01-15T01:05:46;5.27;;;3.90;;
48945;SDS011;34999;50.940;3.998;2024-01-15T01:08:17;6.33;;;4.03;;
48945;SDS011;34999;50.940;3.998;2024-01-15T01:10:45;7.47;;;4.40;;
48945;SDS011;34999;50.940;3.998;2024-01-15T01:13:14;6.60;;;4.33;;
48945;SDS011;34999;50.940;3.998;2024-01-15T01:15:42;7.40;;;4.10;;
48945;SDS011;34999;50.940;3.998;2024-01-15T01:18:10;7.13;;;4.30;;
48945;SDS011;34999;50.940;3.998;2024-01-15T01:20:39;4.60;;;4.20;;
48945;SDS011;34999;50.940;3.998;2024-01-15T01:23:07;5.23;;;4.73;;
48945;SDS011;34999;50.940;3.998;2024-01-15T01:25:37;4.90;;;4.07;;
48945;SDS011;34999;50.940;3.998;2024-01-15T01:28:05;6.30;;;3.60;;
48945;SDS011;34999;50.940;3.998;2024-01-15T01:30:33;8.67;;;3.80;;
48945;SDS011;34999;50.940;3.998;2024-01-15T01:33:02;6.17;;;4.00;;
48945;SDS011;34999;50.940;3.998;2024-01-15T01:35:30;4.47;;;4.13;;
48945;SDS011;34999;50.940;3.998;2024-01-15T01:37:59;5.67;;;4.20;;
48945;SDS011;34999;50.940;3.998;2024-01-15T01:40:28;7.70;;;4.30;;
48945;SDS011;34999;50.940;3.998;2024-01-15T01:42:57;6.63;;;4.50;;
48945;SDS011;34999;50.940;3.998;2024-01-15T01:45:25;7.37;;;4.30;;
48945;SDS011;34999;50.940;3.998;2024-01-15T01:47:54;7.63;;;4.30;;
48945;SDS011;34999;50.940;3.998;2024-01-15T01:50:22;7.33;;;4.63;;
48945;SDS011;34999;50.940;3.998;2024-01-15T01:52:50;7.10;;;4.40;;
48945;SDS011;34999;50.940;3.998;2024-01-15T01:55:20;9.33;;;4.17;;
48945;SDS011;34999;50.940;3.998;2024-01-15T01:57:49;8.57;;;4.87;;
48945;SDS011;34999;50.940;3.998;2024-01-15T02:00:19;9.10;;;4.63;;
48945;SDS011;34999;50.940;3.998;2024-01-15T02:02:48;5.80;;;4.90;;
48945;SDS011;34999;50.940;3.998;2024-01-15T02:05:18;7.50;;;4.50;;
48945;SDS011;34999;50.940;3.998;2024-01-15T02:07:46;6.13;;;4.30;;
48945;SDS011;34999;50.940;3.998;2024-01-15T02:10:15;5.43;;;4.53;;
48945;SDS011;34999;50.940;3.998;2024-01-15T02:12:43;9.67;;;4.20;;
48945;SDS011;34999;50.940;3.998;2024-01-15T02:15:15;6.30;;;4.33;;
48945;SDS011;34999;50.940;3.998;2024-01-15T02:18:01;6.63;;;4.53;;
48945;SDS011;34999;50.940;3.998;2024-01-15T02:20:30;7.90;;;4.20;;
48945;SDS011;34999;50.940;3.998;2024-01-15T02:23:07;8.33;;;4.50;;
48945;SDS011;34999;50.940;3.998;2024-01-15T02:25:38;9.07;;;4.53;;
48945;SDS011;34999;50.940;3.998;2024-01-15T02:28:09;7.17;;;4.67;;
48945;SDS011;34999;50.940;3.998;2024-01-15T02:30:38;9.40;;;4.30;;
48945;SDS011;34999;50.940;3.998;2024-01-15T02:33:07;6.50;;;4.77;;
48945;SDS011;34999;50.940;3.998;2024-01-15T02:35:37;4.87;;;4.47;;
48945;SDS011;34999;50.940;3.998;2024-01-15T02:38:06;7.23;;;4.40;;
48945;SDS011;34999;50.940;3.998;2024-01-15T02:40:35;7.57;;;4.50;;
48945;SDS011;34999;50.940;3.998;2024-01-15T02:43:03;5.10;;;4.13;;
48945;SDS011;34999;50.940;3.998;2024-01-15T02:45:32;4.97;;;4.50;;
48945;SDS011;34999;50.940;3.998;2024-01-15T02:48:00;6.53;;;4.97;;
48945;SDS011;34999;50.940;3.998;2024-01-15T02:50:29;5.13;;;4.40;;
48945;SDS011;34999;50.940;3.998;2024-01-15T02:52:57;6.87;;;4.63;;
48945;SDS011;34999;50.940;3.998;2024-01-15T02:55:27;4.80;;;4.47;;
48945;SDS011;34999;50.940;3.998;2024-01-15T02:57:56;4.50;;;4.10;;
48945;SDS011;34999;50.940;3.998;2024-01-15T03:00:24;7.10;;;4.47;;
48945;SDS011;34999;50.940;3.998;2024-01-15T03:02:52;5.67;;;4.23;;
48945;SDS011;34999;50.940;3.998;2024-01-15T03:05:21;4.97;;;4.40;;
48945;SDS011;34999;50.940;3.998;2024-01-15T03:07:49;4.90;;;4.23;;
48945;SDS011;34999;50.940;3.998;2024-01-15T03:10:17;9.30;;;4.50;;
48945;SDS011;34999;50.940;3.998;2024-01-15T03:12:47;8.47;;;4.67;;
48945;SDS011;34999;50.940;3.998;2024-01-15T03:15:15;5.87;;;3.87;;
48945;SDS011;34999;50.940;3.998;2024-01-15T03:17:45;9.53;;;4.40;;
48945;SDS011;34999;50.940;3.998;2024-01-15T03:20:13;9.47;;;4.40;;
48945;SDS011;34999;50.940;3.998;2024-01-15T03:22:41;4.87;;;4.27;;
48945;SDS011;34999;50.940;3.998;2024-01-15T03:25:10;8.40;;;4.23;;
48945;SDS011;34999;50.940;3.998;2024-01-15T03:27:38;4.97;;;3.63;;
48945;SDS011;34999;50.940;3.998;2024-01-15T03:30:08;7.60;;;4.70;;
48945;SDS011;34999;50.940;3.998;2024-01-15T03:32:37;4.43;;;4.00;;
48945;SDS011;34999;50.940;3.998;2024-01-15T03:35:06;10.00;;;3.90;;
48945;SDS011;34999;50.940;3.998;2024-01-15T03:37:35;6.27;;;4.27;;
48945;SDS011;34999;50.940;3.998;2024-01-15T03:40:03;4.37;;;3.97;;
48945;SDS011;34999;50.940;3.998;2024-01-15T03:42:35;8.33;;;3.90;;
48945;SDS011;34999;50.940;3.998;2024-01-15T03:45:04;6.00;;;4.00;;
48945;SDS011;34999;50.940;3.998;2024-01-15T03:47:34;7.63;;;4.57;;
48945;SDS011;34999;50.940;3.998;2024-01-15T03:50:03;16.30;;;4.43;;
48945;SDS011;34999;50.940;3.998;2024-01-15T03:52:31;13.17;;;4.10;;
48945;SDS011;34999;50.940;3.998;2024-01-15T03:55:00;5.70;;;4.23;;
48945;SDS011;34999;50.940;3.998;2024-01-15T03:57:28;7.90;;;4.23;;
48945;SDS011;34999;50.940;3.998;2024-01-15T03:59:57;9.03;;;3.83;;
48945;SDS011;34999;50.940;3.998;2024-01-15T04:02:26;4.83;;;4.43;;
48945;SDS011;34999;50.940;3.998;2024-01-15T04:04:55;5.13;;;4.27;;
48945;SDS011;34999;50.940;3.998;2024-01-15T04:07:23;7.03;;;4.13;;
48945;SDS011;34999;50.940;3.998;2024-01-15T04:09:52;7.00;;;3.50;;
48945;SDS011;34999;50.940;3.998;2024-01-15T04:12:20;4.10;;;3.80;;
48945;SDS011;34999;50.940;3.998;2024-01-15T04:14:48;5.53;;;3.70;;
48945;SDS011;34999;50.940;3.998;2024-01-15T04:17:16;10.30;;;3.30;;
48945;SDS011;34999;50.940;3.998;2024-01-15T04:19:45;7.57;;;3.37;;
48945;SDS011;34999;50.940;3.998;2024-01-15T04:22:16;4.60;;;3.13;;
48945;SDS011;34999;50.940;3.998;2024-01-15T04:24:44;7.27;;;2.37;;
48945;SDS011;34999;50.940;3.998;2024-01-15T04:27:12;7.83;;;2.53;;
48945;SDS011;34999;50.940;3.998;2024-01-15T04:29:40;6.93;;;2.87;;
48945;SDS011;34999;50.940;3.998;2024-01-15T04:32:10;3.73;;;2.80;;
48945;SDS011;34999;50.940;3.998;2024-01-15T04:34:39;3.80;;;2.03;;
48945;SDS011;34999;50.940;3.998;2024-01-15T04:37:07;2.57;;;2.20;;
48945;SDS011;34999;50.940;3.998;2024-01-15T04:39:37;4.10;;;2.47;;
48945;SDS011;34999;50.940;3.998;2024-01-15T04:42:05;4.37;;;2.73;;
48945;SDS011;34999;50.940;3.998;2024-01-15T04:44:33;9.87;;;2.57;;
48945;SDS011;34999;50.940;3.998;2024-01-15T04:47:02;9.53;;;2.47;;
48945;SDS011;34999;50.940;3.998;2024-01-15T04:49:30;2.40;;;2.20;;
48945;SDS011;34999;50.940;3.998;2024-01-15T04:51:59;3.57;;;2.17;;
48945;SDS011;34999;50.940;3.998;2024-01-15T04:54:27;4.97;;;2.40;;
48945;SDS011;34999;50.940;3.998;2024-01-15T04:56:57;3.77;;;2.43;;
48945;SDS011;34999;50.940;3.998;2024-01-15T04:59:25;9.03;;;2.60;;
48945;SDS011;34999;50.940;3.998;2024-01-15T05:01:53;3.87;;;2.37;;
48945;SDS011;34999;50.940;3.998;2024-01-15T05:04:22;5.63;;;2.50;;
48945;SDS011;34999;50.940;3.998;2024-01-15T05:06:51;7.10;;;2.30;;
48945;SDS011;34999;50.940;3.998;2024-01-15T05:09:19;6.67;;;2.30;;
48945;SDS011;34999;50.940;3.998;2024-01-15T05:11:48;2.50;;;2.10;;
48945;SDS011;34999;50.940;3.998;2024-01-15T05:14:17;3.20;;;2.53;;
48945;SDS011;34999;50.940;3.998;2024-01-15T05:16:48;3.13;;;2.33;;
48945;SDS011;34999;50.940;3.998;2024-01-15T05:19:17;9.53;;;2.63;;
48945;SDS011;34999;50.940;3.998;2024-01-15T05:21:46;5.80;;;2.10;;
48945;SDS011;34999;50.940;3.998;2024-01-15T05:24:15;6.53;;;2.40;;
48945;SDS011;34999;50.940;3.998;2024-01-15T05:26:43;5.87;;;2.10;;
48945;SDS011;34999;50.940;3.998;2024-01-15T05:29:12;4.63;;;1.93;;
48945;SDS011;34999;50.940;3.998;2024-01-15T05:31:42;5.60;;;2.20;;
48945;SDS011;34999;50.940;3.998;2024-01-15T05:34:10;2.37;;;1.83;;
48945;SDS011;34999;50.940;3.998;2024-01-15T05:36:39;2.03;;;1.93;;
48945;SDS011;34999;50.940;3.998;2024-01-15T05:39:07;4.83;;;2.20;;
48945;SDS011;34999;50.940;3.998;2024-01-15T05:41:35;3.27;;;2.20;;
48945;SDS011;34999;50.940;3.998;2024-01-15T05:44:04;3.77;;;2.20;;
48945;SDS011;34999;50.940;3.998;2024-01-15T05:46:31;6.83;;;2.53;;
48945;SDS011;34999;50.940;3.998;2024-01-15T05:49:01;10.40;;;2.57;;
48945;SDS011;34999;50.940;3.998;2024-01-15T05:51:29;6.07;;;3.13;;
48945;SDS011;34999;50.940;3.998;2024-01-15T05:53:58;2.40;;;2.20;;
48945;SDS011;34999;50.940;3.998;2024-01-15T05:56:26;3.90;;;2.57;;
48945;SDS011;34999;50.940;3.998;2024-01-15T05:58:54;5.90;;;2.60;;
48945;SDS011;34999;50.940;3.998;2024-01-15T06:01:22;6.43;;;2.90;;
48945;SDS011;34999;50.940;3.998;2024-01-15T06:03:51;7.93;;;3.00;;
48945;SDS011;34999;50.940;3.998;2024-01-15T06:06:21;4.37;;;3.03;;
48945;SDS011;34999;50.940;3.998;2024-01-15T06:08:49;5.03;;;2.70;;
48945;SDS011;34999;50.940;3.998;2024-01-15T06:11:18;9.30;;;3.40;;
48945;SDS011;34999;50.940;3.998;2024-01-15T06:13:46;6.93;;;3.00;;
48945;SDS011;34999;50.940;3.998;2024-01-15T06:16:14;7.00;;;3.13;;
48945;SDS011;34999;50.940;3.998;2024-01-15T06:18:43;7.50;;;3.17;;
48945;SDS011;34999;50.940;3.998;2024-01-15T06:21:11;10.23;;;3.60;;
48945;SDS011;34999;50.940;3.998;2024-01-15T06:23:42;7.40;;;3.33;;
48945;SDS011;34999;50.940;3.998;2024-01-15T06:26:11;9.23;;;3.10;;
48945;SDS011;34999;50.940;3.998;2024-01-15T06:28:39;6.57;;;3.37;;
48945;SDS011;34999;50.940;3.998;2024-01-15T06:31:07;6.63;;;2.80;;
48945;SDS011;34999;50.940;3.998;2024-01-15T06:33:36;3.10;;;2.77;;
48945;SDS011;34999;50.940;3.998;2024-01-15T06:36:05;8.17;;;2.60;;
48945;SDS011;34999;50.940;3.998;2024-01-15T06:38:34;10.43;;;3.10;;
48945;SDS011;34999;50.940;3.998;2024-01-15T06:41:04;6.13;;;2.93;;
48945;SDS011;34999;50.940;3.998;2024-01-15T06:43:32;6.20;;;2.57;;
48945;SDS011;34999;50.940;3.998;2024-01-15T06:46:00;5.97;;;2.73;;
48945;SDS011;34999;50.940;3.998;2024-01-15T06:48:33;7.60;;;3.30;;
48945;SDS011;34999;50.940;3.998;2024-01-15T06:51:01;15.80;;;3.27;;
48945;SDS011;34999;50.940;3.998;2024-01-15T06:53:30;9.20;;;3.23;;
48945;SDS011;34999;50.940;3.998;2024-01-15T06:55:58;8.10;;;3.83;;
48945;SDS011;34999;50.940;3.998;2024-01-15T06:58:28;12.07;;;3.47;;
48945;SDS011;34999;50.940;3.998;2024-01-15T07:00:58;11.27;;;3.83;;
48945;SDS011;34999;50.940;3.998;2024-01-15T07:03:27;4.50;;;3.00;;
48945;SDS011;34999;50.940;3.998;2024-01-15T07:05:57;12.07;;;3.83;;
48945;SDS011;34999;50.940;3.998;2024-01-15T07:08:25;5.67;;;2.90;;
48945;SDS011;34999;50.940;3.998;2024-01-15T07:10:54;8.47;;;3.47;;
48945;SDS011;34999;50.940;3.998;2024-01-15T07:13:22;5.83;;;3.10;;
48945;SDS011;34999;50.940;3.998;2024-01-15T07:15:52;7.67;;;3.20;;
48945;SDS011;34999;50.940;3.998;2024-01-15T07:18:20;9.17;;;3.80;;
48945;SDS011;34999;50.940;3.998;2024-01-15T07:20:51;7.67;;;3.40;;
48945;SDS011;34999;50.940;3.998;2024-01-15T07:23:19;8.73;;;2.83;;
48945;SDS011;34999;50.940;3.998;2024-01-15T07:25:47;9.43;;;3.23;;
48945;SDS011;34999;50.940;3.998;2024-01-15T07:28:15;9.83;;;3.53;;
48945;SDS011;34999;50.940;3.998;2024-01-15T07:30:44;16.20;;;4.43;;
48945;SDS011;34999;50.940;3.998;2024-01-15T07:33:13;10.27;;;3.50;;
48945;SDS011;34999;50.940;3.998;2024-01-15T07:35:42;17.97;;;4.13;;
48945;SDS011;34999;50.940;3.998;2024-01-15T07:38:11;9.17;;;3.53;;
48945;SDS011;34999;50.940;3.998;2024-01-15T07:40:39;11.40;;;3.63;;
48945;SDS011;34999;50.940;3.998;2024-01-15T07:43:07;15.63;;;3.87;;
48945;SDS011;34999;50.940;3.998;2024-01-15T07:45:35;11.83;;;4.47;;
48945;SDS011;34999;50.940;3.998;2024-01-15T07:48:04;12.10;;;3.40;;
48945;SDS011;34999;50.940;3.998;2024-01-15T07:50:34;7.90;;;3.63;;
48945;SDS011;34999;50.940;3.998;2024-01-15T07:53:03;12.63;;;4.73;;
48945;SDS011;34999;50.940;3.998;2024-01-15T07:55:31;9.57;;;3.83;;
48945;SDS011;34999;50.940;3.998;2024-01-15T07:57:59;9.30;;;4.07;;
48945;SDS011;34999;50.940;3.998;2024-01-15T08:00:41;10.37;;;3.93;;
48945;SDS011;34999;50.940;3.998;2024-01-15T08:03:10;14.97;;;4.83;;
48945;SDS011;34999;50.940;3.998;2024-01-15T08:05:40;17.43;;;4.20;;
48945;SDS011;34999;50.940;3.998;2024-01-15T08:08:08;12.47;;;3.67;;
48945;SDS011;34999;50.940;3.998;2024-01-15T08:10:36;7.23;;;3.67;;
48945;SDS011;34999;50.940;3.998;2024-01-15T08:13:05;13.73;;;4.50;;
48945;SDS011;34999;50.940;3.998;2024-01-15T08:15:35;7.33;;;3.30;;
48945;SDS011;34999;50.940;3.998;2024-01-15T08:18:04;14.77;;;4.33;;
48945;SDS011;34999;50.940;3.998;2024-01-15T08:20:32;16.30;;;4.47;;
48945;SDS011;34999;50.940;3.998;2024-01-15T08:23:02;8.27;;;3.60;;
48945;SDS011;34999;50.940;3.998;2024-01-15T08:25:33;10.67;;;3.70;;
48945;SDS011;34999;50.940;3.998;2024-01-15T08:28:01;8.70;;;3.63;;
48945;SDS011;34999;50.940;3.998;2024-01-15T08:30:30;13.50;;;4.53;;
48945;SDS011;34999;50.940;3.998;2024-01-15T08:32:58;17.53;;;4.00;;
48945;SDS011;34999;50.940;3.998;2024-01-15T08:35:37;8.70;;;3.67;;
48945;SDS011;34999;50.940;3.998;2024-01-15T08:38:06;11.17;;;3.50;;
48945;SDS011;34999;50.940;3.998;2024-01-15T08:40:35;10.40;;;4.20;;
48945;SDS011;34999;50.940;3.998;2024-01-15T08:43:03;16.77;;;3.70;;
48945;SDS011;34999;50.940;3.998;2024-01-15T08:45:33;10.93;;;3.93;;
48945;SDS011;34999;50.940;3.998;2024-01-15T08:48:02;9.57;;;3.00;;
48945;SDS011;34999;50.940;3.998;2024-01-15T08:50:31;8.40;;;2.63;;
48945;SDS011;34999;50.940;3.998;2024-01-15T08:53:00;6.57;;;2.53;;
48945;SDS011;34999;50.940;3.998;2024-01-15T08:55:30;6.27;;;2.80;;
48945;SDS011;34999;50.940;3.998;2024-01-15T08:57:59;4.83;;;2.57;;
48945;SDS011;34999;50.940;3.998;2024-01-15T09:00:27;6.07;;;2.53;;
48945;SDS011;34999;50.940;3.998;2024-01-15T09:02:56;5.13;;;2.37;;
48945;SDS011;34999;50.940;3.998;2024-01-15T09:05:24;8.57;;;3.23;;
48945;SDS011;34999;50.940;3.998;2024-01-15T09:07:52;7.00;;;2.50;;
48945;SDS011;34999;50.940;3.998;2024-01-15T09:10:21;7.20;;;2.70;;
48945;SDS011;34999;50.940;3.998;2024-01-15T09:12:51;8.57;;;2.60;;
48945;SDS011;34999;50.940;3.998;2024-01-15T09:15:20;4.63;;;2.77;;
48945;SDS011;34999;50.940;3.998;2024-01-15T09:17:48;6.80;;;3.07;;
48945;SDS011;34999;50.940;3.998;2024-01-15T09:20:16;8.03;;;2.70;;
48945;SDS011;34999;50.940;3.998;2024-01-15T09:22:45;6.53;;;3.00;;
48945;SDS011;34999;50.940;3.998;2024-01-15T09:25:13;5.17;;;2.40;;
48945;SDS011;34999;50.940;3.998;2024-01-15T09:27:41;6.17;;;2.87;;
48945;SDS011;34999;50.940;3.998;2024-01-15T09:30:12;8.30;;;2.50;;
48945;SDS011;34999;50.940;3.998;2024-01-15T09:32:40;9.97;;;2.77;;
48945;SDS011;34999;50.940;3.998;2024-01-15T09:35:09;10.40;;;3.10;;
48945;SDS011;34999;50.940;3.998;2024-01-15T09:37:38;9.63;;;2.87;;
48945;SDS011;34999;50.940;3.998;2024-01-15T09:40:13;8.30;;;2.97;;
48945;SDS011;34999;50.940;3.998;2024-01-15T09:42:43;4.30;;;2.30;;
48945;SDS011;34999;50.940;3.998;2024-01-15T09:45:13;10.43;;;2.93;;
48945;SDS011;34999;50.940;3.998;2024-01-15T09:47:42;4.37;;;2.40;;
48945;SDS011;34999;50.940;3.998;2024-01-15T09:50:12;4.63;;;2.27;;
48945;SDS011;34999;50.940;3.998;2024-01-15T09:52:42;3.90;;;2.30;;
48945;SDS011;34999;50.940;3.998;2024-01-15T09:55:13;4.50;;;2.83;;
48945;SDS011;34999;50.940;3.998;2024-01-15T09:57:43;8.63;;;2.53;;
48945;SDS011;34999;50.940;3.998;2024-01-15T10:00:14;8.03;;;2.60;;
48945;SDS011;34999;50.940;3.998;2024-01-15T10:02:45;5.77;;;2.60;;
48945;SDS011;34999;50.940;3.998;2024-01-15T10:05:13;5.83;;;2.17;;
48945;SDS011;34999;50.940;3.998;2024-01-15T10:07:42;8.93;;;2.30;;
48945;SDS011;34999;50.940;3.998;2024-01-15T10:10:11;11.47;;;2.43;;
48945;SDS011;34999;50.940;3.998;2024-01-15T10:12:39;14.37;;;3.00;;
48945;SDS011;34999;50.940;3.998;2024-01-15T10:15:09;6.13;;;3.17;;
48945;SDS011;34999;50.940;3.998;2024-01-15T10:17:39;10.97;;;3.60;;
48945;SDS011;34999;50.940;3.998;2024-01-15T10:20:09;5.77;;;2.50;;
48945;SDS011;34999;50.940;3.998;2024-01-15T10:22:40;4.60;;;2.20;;
48945;SDS011;34999;50.940;3.998;2024-01-15T10:25:10;6.43;;;2.17;;
48945;SDS011;34999;50.940;3.998;2024-01-15T10:27:39;3.33;;;2.20;;
48945;SDS011;34999;50.940;3.998;2024-01-15T10:30:09;5.60;;;2.73;;
48945;SDS011;34999;50.940;3.998;2024-01-15T10:32:42;4.67;;;2.03;;
48945;SDS011;34999;50.940;3.998;2024-01-15T10:35:26;7.47;;;2.10;;
48945;SDS011;34999;50.940;3.998;2024-01-15T10:37:55;6.57;;;2.23;;
48945;SDS011;34999;50.940;3.998;2024-01-15T10:40:24;3.90;;;2.27;;
48945;SDS011;34999;50.940;3.998;2024-01-15T10:42:52;7.57;;;2.50;;
48945;SDS011;34999;50.940;3.998;2024-01-15T10:45:21;5.13;;;1.80;;
48945;SDS011;34999;50.940;3.998;2024-01-15T10:47:51;7.20;;;2.17;;
48945;SDS011;34999;50.940;3.998;2024-01-15T10:50:21;7.63;;;2.00;;
48945;SDS011;34999;50.940;3.998;2024-01-15T10:52:49;4.37;;;2.10;;
48945;SDS011;34999;50.940;3.998;2024-01-15T10:55:19;8.00;;;2.13;;
48945;SDS011;34999;50.940;3.998;2024-01-15T10:57:50;5.97;;;2.37;;
48945;SDS011;34999;50.940;3.998;2024-01-15T11:00:23;13.03;;;1.97;;
48945;SDS011;34999;50.940;3.998;2024-01-15T11:02:53;5.13;;;2.07;;
48945;SDS011;34999;50.940;3.998;2024-01-15T11:05:22;6.07;;;2.10;;
48945;SDS011;34999;50.940;3.998;2024-01-15T11:07:51;6.57;;;1.90;;
48945;SDS011;34999;50.940;3.998;2024-01-15T11:10:37;4.50;;;1.67;;
48945;SDS011;34999;50.940;3.998;2024-01-15T11:13:08;4.20;;;2.07;;
48945;SDS011;34999;50.940;3.998;2024-01-15T11:18:30;7.63;;;2.30;;
48945;SDS011;34999;50.940;3.998;2024-01-15T11:21:19;3.30;;;2.07;;
48945;SDS011;34999;50.940;3.998;2024-01-15T11:23:49;8.43;;;2.27;;
48945;SDS011;34999;50.940;3.998;2024-01-15T11:26:33;3.60;;;1.70;;
48945;SDS011;34999;50.940;3.998;2024-01-15T11:29:03;5.77;;;2.17;;
48945;SDS011;34999;50.940;3.998;2024-01-15T11:31:56;8.07;;;2.33;;
48945;SDS011;34999;50.940;3.998;2024-01-15T11:37:26;4.00;;;2.10;;
48945;SDS011;34999;50.940;3.998;2024-01-15T11:39:55;5.20;;;2.60;;
48945;SDS011;34999;50.940;3.998;2024-01-15T11:42:32;5.30;;;2.60;;
48945;SDS011;34999;50.940;3.998;2024-01-15T11:45:00;7.83;;;2.23;;
48945;SDS011;34999;50.940;3.998;2024-01-15T11:50:35;8.23;;;1.93;;
48945;SDS011;34999;50.940;3.998;2024-01-15T11:53:08;8.20;;;2.67;;
48945;SDS011;34999;50.940;3.998;2024-01-15T11:55:45;9.87;;;2.43;;
48945;SDS011;34999;50.940;3.998;2024-01-15T11:58:15;13.33;;;2.40;;
48945;SDS011;34999;50.940;3.998;2024-01-15T12:00:44;2.63;;;2.00;;
48945;SDS011;34999;50.940;3.998;2024-01-15T12:03:15;8.67;;;2.43;;
48945;SDS011;34999;50.940;3.998;2024-01-15T12:05:46;3.00;;;2.03;;
48945;SDS011;34999;50.940;3.998;2024-01-15T12:08:14;7.73;;;1.90;;
48945;SDS011;34999;50.940;3.998;2024-01-15T12:10:48;3.30;;;1.80;;
48945;SDS011;34999;50.940;3.998;2024-01-15T12:13:17;5.30;;;2.00;;
48945;SDS011;34999;50.940;3.998;2024-01-15T12:15:46;3.50;;;2.10;;
48945;SDS011;34999;50.940;3.998;2024-01-15T12:18:16;6.70;;;1.90;;
48945;SDS011;34999;50.940;3.998;2024-01-15T12:20:47;6.57;;;2.70;;
48945;SDS011;34999;50.940;3.998;2024-01-15T12:23:16;5.20;;;2.10;;
48945;SDS011;34999;50.940;3.998;2024-01-15T12:25:45;8.70;;;1.93;;
48945;SDS011;34999;50.940;3.998;2024-01-15T12:28:13;4.80;;;2.00;;
48945;SDS011;34999;50.940;3.998;2024-01-15T12:30:46;5.40;;;2.20;;
48945;SDS011;34999;50.940;3.998;2024-01-15T12:33:17;8.43;;;1.80;;
48945;SDS011;34999;50.940;3.998;2024-01-15T12:35:49;5.47;;;2.03;;
48945;SDS011;34999;50.940;3.998;2024-01-15T12:38:20;5.97;;;1.90;;
48945;SDS011;34999;50.940;3.998;2024-01-15T12:40:48;8.13;;;2.40;;
48945;SDS011;34999;50.940;3.998;2024-01-15T12:43:17;7.53;;;1.83;;
48945;SDS011;34999;50.940;3.998;2024-01-15T12:45:46;7.70;;;2.30;;
48945;SDS011;34999;50.940;3.998;2024-01-15T12:48:15;3.80;;;2.00;;
48945;SDS011;34999;50.940;3.998;2024-01-15T12:50:44;8.10;;;3.00;;
48945;SDS011;34999;50.940;3.998;2024-01-15T12:53:15;10.00;;;2.23;;
48945;SDS011;34999;50.940;3.998;2024-01-15T12:55:44;5.93;;;2.07;;
48945;SDS011;34999;50.940;3.998;2024-01-15T12:58:12;8.87;;;2.50;;
48945;SDS011;34999;50.940;3.998;2024-01-15T13:00:44;9.90;;;2.30;;
48945;SDS011;34999;50.940;3.998;2024-01-15T13:03:13;6.80;;;2.07;;
48945;SDS011;34999;50.940;3.998;2024-01-15T13:05:41;7.87;;;2.13;;
48945;SDS011;34999;50.940;3.998;2024-01-15T13:08:12;9.37;;;2.50;;
48945;SDS011;34999;50.940;3.998;2024-01-15T13:10:41;6.80;;;2.57;;
48945;SDS011;34999;50.940;3.998;2024-01-15T13:13:10;8.40;;;2.57;;
48945;SDS011;34999;50.940;3.998;2024-01-15T13:15:39;11.30;;;2.80;;
48945;SDS011;34999;50.940;3.998;2024-01-15T13:18:08;14.73;;;2.80;;
48945;SDS011;34999;50.940;3.998;2024-01-15T13:20:37;8.10;;;2.93;;
48945;SDS011;34999;50.940;3.998;2024-01-15T13:23:05;10.23;;;2.50;;
48945;SDS011;34999;50.940;3.998;2024-01-15T13:25:33;9.73;;;2.40;;
48945;SDS011;34999;50.940;3.998;2024-01-15T13:28:06;8.13;;;2.40;;
48945;SDS011;34999;50.940;3.998;2024-01-15T13:30:35;8.37;;;2.37;;
48945;SDS011;34999;50.940;3.998;2024-01-15T13:33:04;9.17;;;2.80;;
48945;SDS011;34999;50.940;3.998;2024-01-15T13:35:33;8.30;;;2.57;;
48945;SDS011;34999;50.940;3.998;2024-01-15T13:38:02;6.30;;;2.10;;
48945;SDS011;34999;50.940;3.998;2024-01-15T13:40:31;5.27;;;1.97;;
48945;SDS011;34999;50.940;3.998;2024-01-15T13:42:59;7.83;;;2.20;;
48945;SDS011;34999;50.940;3.998;2024-01-15T13:45:30;6.03;;;2.60;;
48945;SDS011;34999;50.940;3.998;2024-01-15T13:47:58;6.27;;;2.60;;
48945;SDS011;34999;50.940;3.998;2024-01-15T13:50:26;3.43;;;2.10;;
48945;SDS011;34999;50.940;3.998;2024-01-15T13:52:55;7.50;;;2.33;;
48945;SDS011;34999;50.940;3.998;2024-01-15T13:55:24;2.57;;;1.90;;
48945;SDS011;34999;50.940;3.998;2024-01-15T13:57:53;8.17;;;1.97;;
48945;SDS011;34999;50.940;3.998;2024-01-15T14:00:21;4.63;;;1.60;;
48945;SDS011;34999;50.940;3.998;2024-01-15T14:02:51;2.67;;;2.23;;
48945;SDS011;34999;50.940;3.998;2024-01-15T14:05:19;7.77;;;2.20;;
48945;SDS011;34999;50.940;3.998;2024-01-15T14:07:48;7.03;;;2.07;;
48945;SDS011;34999;50.940;3.998;2024-01-15T14:10:16;7.13;;;2.13;;
48945;SDS011;34999;50.940;3.998;2024-01-15T14:12:44;2.63;;;1.90;;
48945;SDS011;34999;50.940;3.998;2024-01-15T14:15:13;5.23;;;2.03;;
48945;SDS011;34999;50.940;3.998;2024-01-15T14:17:42;3.90;;;2.20;;
48945;SDS011;34999;50.940;3.998;2024-01-15T14:20:12;8.00;;;2.47;;
48945;SDS011;34999;50.940;3.998;2024-01-15T14:22:40;2.00;;;1.90;;
48945;SDS011;34999;50.940;3.998;2024-01-15T14:25:09;5.87;;;2.37;;
48945;SDS011;34999;50.940;3.998;2024-01-15T14:27:37;5.90;;;2.10;;
48945;SDS011;34999;50.940;3.998;2024-01-15T14:30:06;3.67;;;1.90;;
48945;SDS011;34999;50.940;3.998;2024-01-15T14:32:35;2.17;;;1.87;;
48945;SDS011;34999;50.940;3.998;2024-01-15T14:35:04;1.70;;;1.60;;
48945;SDS011;34999;50.940;3.998;2024-01-15T14:37:36;4.07;;;1.60;;
48945;SDS011;34999;50.940;3.998;2024-01-15T14:40:04;4.00;;;1.90;;
48945;SDS011;34999;50.940;3.998;2024-01-15T14:42:34;5.13;;;1.87;;
48945;SDS011;34999;50.940;3.998;2024-01-15T14:45:03;6.30;;;1.90;;
48945;SDS011;34999;50.940;3.998;2024-01-15T14:47:38;2.43;;;1.70;;
48945;SDS011;34999;50.940;3.998;2024-01-15T14:50:07;2.83;;;1.80;;
48945;SDS011;34999;50.940;3.998;2024-01-15T14:52:38;3.37;;;2.83;;
48945;SDS011;34999;50.940;3.998;2024-01-15T14:55:08;6.07;;;1.87;;
48945;SDS011;34999;50.940;3.998;2024-01-15T14:57:37;4.10;;;2.57;;
48945;SDS011;34999;50.940;3.998;2024-01-15T15:00:06;6.47;;;2.87;;
48945;SDS011;34999;50.940;3.998;2024-01-15T15:02:36;5.53;;;3.57;;
48945;SDS011;34999;50.940;3.998;2024-01-15T15:05:04;3.90;;;2.60;;
48945;SDS011;34999;50.940;3.998;2024-01-15T15:07:33;6.63;;;2.10;;